Time;durP1;ratioP1;P1;durP2;ratioP2;P2;SDS_P1;SDS_P2;PMS_P1;PMS_P2;Temp;Humidity;BMP_temperature;BMP_pressure;BME280_temperature;BME280_humidity;BME280_pressure;Samples;Min_cycle;Max_cycle;Signal;HPM_P1;HPM_P2
2021/11/07 00:00:11;;;;;;;10.95;4.32;;;;;;;;;;4925159;29;20031;-72
2021/11/07 00:03:01;;;;;;;11.75;4.60;;;;;;;;;;4926437;29;20043;-73
2021/11/07 00:05:42;;;;;;;10.60;4.05;;;;;;;;;;4928765;29;20043;-73
2021/11/07 00:10:43;;;;;;;10.52;4.30;;;;;;;;;;4925788;29;20387;-73
2021/11/07 00:13:19;;;;;;;9.30;4.22;;;;;;;;;;4923693;29;20623;-74
2021/11/07 00:15:46;;;;;;;13.80;4.47;;;;;;;;;;4921025;29;20027;-75
2021/11/07 00:18:16;;;;;;;10.20;4.20;;;;;;;;;;4918526;29;20048;-74
2021/11/07 00:20:53;;;;;;;14.10;3.63;;;;;;;;;;4922517;29;20071;-74
2021/11/07 00:26:11;;;;;;;6.75;3.22;;;;;;;;;;4919599;29;20052;-73
2021/11/07 00:28:40;;;;;;;9.65;3.70;;;;;;;;;;4922957;29;20023;-75
2021/11/07 00:49:04;;;;;;;12.32;3.45;;;;;;;;;;4923821;29;20032;-73
2021/11/07 00:59:22;;;;;;;10.38;2.95;;;;;;;;;;4920961;29;20272;-74
2021/11/07 01:01:53;;;;;;;8.10;3.47;;;;;;;;;;4918993;29;20028;-74
2021/11/07 01:04:20;;;;;;;12.30;3.25;;;;;;;;;;4920865;29;20046;-74
2021/11/07 01:06:46;;;;;;;8.07;3.40;;;;;;;;;;4921372;29;20055;-73
2021/11/07 01:09:13;;;;;;;8.27;2.95;;;;;;;;;;4918055;29;20047;-74
2021/11/07 01:11:39;;;;;;;8.23;2.78;;;;;;;;;;4923341;29;20042;-73
2021/11/07 01:14:07;;;;;;;6.55;2.83;;;;;;;;;;4920220;29;20027;-74
2021/11/07 01:16:33;;;;;;;7.60;2.97;;;;;;;;;;4921358;29;20240;-73
2021/11/07 01:19:00;;;;;;;8.15;3.30;;;;;;;;;;4920747;29;20108;-74
2021/11/07 01:21:29;;;;;;;7.55;3.33;;;;;;;;;;4920203;29;20036;-74
2021/11/07 01:23:59;;;;;;;7.00;2.85;;;;;;;;;;4921950;29;20020;-71
2021/11/07 01:26:39;;;;;;;9.45;3.55;;;;;;;;;;4922278;29;20048;-73
2021/11/07 01:29:13;;;;;;;8.55;3.28;;;;;;;;;;4919252;29;20064;-74
2021/11/07 01:31:40;;;;;;;9.88;3.17;;;;;;;;;;4918152;29;20048;-73
2021/11/07 01:34:11;;;;;;;8.70;3.13;;;;;;;;;;4920540;29;20031;-73
2021/11/07 01:36:46;;;;;;;11.27;3.30;;;;;;;;;;4921964;29;20095;-73
2021/11/07 01:39:38;;;;;;;9.23;2.83;;;;;;;;;;4919549;29;20484;-73
2021/11/07 01:44:45;;;;;;;9.50;3.28;;;;;;;;;;4920291;29;20074;-73
2021/11/07 01:47:12;;;;;;;4.03;2.60;;;;;;;;;;4910525;29;20047;-73
2021/11/07 01:49:41;;;;;;;6.82;2.97;;;;;;;;;;4919294;29;20472;-73
2021/11/07 01:52:09;;;;;;;12.43;3.60;;;;;;;;;;4921266;29;20118;-73
2021/11/07 01:55:21;;;;;;;9.32;2.88;;;;;;;;;;4922564;29;20644;-73
2021/11/07 01:57:24;;;;;;;7.60;2.70;;;;;;;;;;4911082;29;20122;-73
2021/11/07 01:59:53;;;;;;;10.07;2.80;;;;;;;;;;4918701;29;20028;-72
2021/11/07 02:02:21;;;;;;;6.32;2.88;;;;;;;;;;4920662;29;20032;-74
2021/11/07 02:04:48;;;;;;;7.03;3.33;;;;;;;;;;4919806;29;20024;-72
2021/11/07 02:07:15;;;;;;;10.88;3.70;;;;;;;;;;4917446;29;20035;-75
2021/11/07 02:09:42;;;;;;;7.60;2.70;;;;;;;;;;4916521;29;20403;-74
2021/11/07 02:12:09;;;;;;;7.60;2.83;;;;;;;;;;4917709;29;20480;-73
2021/11/07 02:14:36;;;;;;;8.25;3.50;;;;;;;;;;4920091;29;20059;-74
2021/11/07 02:17:02;;;;;;;9.07;2.75;;;;;;;;;;4914631;29;20040;-74
2021/11/07 02:19:28;;;;;;;6.85;3.08;;;;;;;;;;4917807;29;20631;-74
2021/11/07 02:21:55;;;;;;;8.52;3.10;;;;;;;;;;4914440;29;20038;-74
2021/11/07 02:24:21;;;;;;;7.82;2.95;;;;;;;;;;4923864;29;20369;-74
2021/11/07 02:26:52;;;;;;;6.63;2.70;;;;;;;;;;4921094;29;20126;-74
2021/11/07 02:29:20;;;;;;;7.47;3.47;;;;;;;;;;4913187;29;20028;-74
2021/11/07 02:31:46;;;;;;;6.30;3.03;;;;;;;;;;4913732;29;21065;-74
2021/11/07 02:34:12;;;;;;;8.80;3.55;;;;;;;;;;4916230;29;20047;-74
2021/11/07 02:36:38;;;;;;;5.85;2.72;;;;;;;;;;4914053;29;20694;-74
2021/11/07 02:39:04;;;;;;;8.02;3.05;;;;;;;;;;4920762;29;20038;-74
2021/11/07 02:41:30;;;;;;;11.85;2.90;;;;;;;;;;4914223;29;20589;-74
2021/11/07 02:43:57;;;;;;;8.15;2.70;;;;;;;;;;4917893;29;20595;-74
2021/11/07 02:46:23;;;;;;;6.72;2.95;;;;;;;;;;4913000;29;20044;-74
2021/11/07 02:49:08;;;;;;;9.52;3.15;;;;;;;;;;4915102;29;20032;-73
2021/11/07 02:51:37;;;;;;;9.13;3.33;;;;;;;;;;4915306;29;20028;-74
2021/11/07 02:54:08;;;;;;;9.52;3.33;;;;;;;;;;4916015;29;20036;-74
2021/11/07 02:56:35;;;;;;;10.13;3.63;;;;;;;;;;4917020;29;20039;-74
2021/11/07 02:59:01;;;;;;;10.52;2.85;;;;;;;;;;4915294;29;20028;-74
2021/11/07 03:01:28;;;;;;;5.82;2.78;;;;;;;;;;4916861;29;20028;-74
2021/11/07 03:04:01;;;;;;;8.40;2.97;;;;;;;;;;4921876;29;20028;-74
2021/11/07 03:06:30;;;;;;;12.18;3.63;;;;;;;;;;4916032;29;20032;-74
2021/11/07 03:08:56;;;;;;;9.05;3.08;;;;;;;;;;4914517;29;20031;-73
2021/11/07 03:11:22;;;;;;;9.00;2.65;;;;;;;;;;4923056;29;20063;-74
2021/11/07 03:13:50;;;;;;;7.65;3.17;;;;;;;;;;4921396;29;20024;-73
2021/11/07 03:16:17;;;;;;;6.32;2.85;;;;;;;;;;4918522;29;20024;-73
2021/11/07 03:18:43;;;;;;;8.88;3.10;;;;;;;;;;4923882;29;20480;-74
2021/11/07 03:21:11;;;;;;;7.03;2.75;;;;;;;;;;4922710;29;20050;-74
2021/11/07 03:23:38;;;;;;;9.02;2.58;;;;;;;;;;4919737;29;20036;-74
2021/11/07 03:26:09;;;;;;;5.68;3.20;;;;;;;;;;4923266;29;20070;-74
2021/11/07 03:28:36;;;;;;;7.35;3.58;;;;;;;;;;4921281;29;20052;-73
2021/11/07 03:33:36;;;;;;;7.82;2.65;;;;;;;;;;4919351;29;20024;-73
2021/11/07 03:36:05;;;;;;;6.47;3.45;;;;;;;;;;4919630;29;20024;-74
2021/11/07 03:38:31;;;;;;;8.35;2.92;;;;;;;;;;4919457;29;20483;-74
2021/11/07 03:40:58;;;;;;;8.45;2.72;;;;;;;;;;4922349;29;20032;-74
2021/11/07 03:43:28;;;;;;;6.43;2.65;;;;;;;;;;4918039;29;20538;-74
2021/11/07 03:45:55;;;;;;;12.88;2.85;;;;;;;;;;4919471;29;20142;-74
2021/11/07 03:48:22;;;;;;;6.43;2.17;;;;;;;;;;4918490;29;20036;-74
2021/11/07 03:50:48;;;;;;;8.88;2.78;;;;;;;;;;4916960;29;20639;-74
2021/11/07 03:53:15;;;;;;;7.05;2.60;;;;;;;;;;4922056;29;20044;-74
2021/11/07 03:55:41;;;;;;;8.73;3.08;;;;;;;;;;4918075;29;20028;-74
2021/11/07 03:58:08;;;;;;;6.53;3.10;;;;;;;;;;4918800;29;20031;-74
2021/11/07 04:00:34;;;;;;;8.13;2.65;;;;;;;;;;4919774;29;20034;-74
2021/11/07 04:03:01;;;;;;;7.32;2.88;;;;;;;;;;4919686;29;20024;-74
2021/11/07 04:05:27;;;;;;;7.93;3.13;;;;;;;;;;4918435;29;20032;-74
2021/11/07 04:07:53;;;;;;;6.40;2.47;;;;;;;;;;4917651;29;20353;-74
2021/11/07 04:10:20;;;;;;;7.38;2.92;;;;;;;;;;4915936;29;20024;-74
2021/11/07 04:12:46;;;;;;;7.45;3.15;;;;;;;;;;4916956;29;20035;-73
2021/11/07 04:15:13;;;;;;;6.43;2.85;;;;;;;;;;4919567;29;20024;-73
2021/11/07 04:17:39;;;;;;;5.82;2.40;;;;;;;;;;4917577;29;20405;-73
2021/11/07 04:20:06;;;;;;;9.32;2.75;;;;;;;;;;4919726;29;20103;-74
2021/11/07 04:22:33;;;;;;;8.23;3.08;;;;;;;;;;4914551;29;20039;-73
2021/11/07 04:24:59;;;;;;;6.70;2.40;;;;;;;;;;4919508;29;20028;-74
2021/11/07 04:27:26;;;;;;;12.18;2.83;;;;;;;;;;4922798;29;20112;-74
2021/11/07 04:29:52;;;;;;;8.85;2.50;;;;;;;;;;4916411;29;20048;-74
2021/11/07 04:32:18;;;;;;;5.47;2.30;;;;;;;;;;4916437;29;20035;-74
2021/11/07 04:34:44;;;;;;;5.10;2.35;;;;;;;;;;4918713;29;20508;-74
2021/11/07 04:37:11;;;;;;;8.95;2.78;;;;;;;;;;4913702;29;20036;-74
2021/11/07 04:39:37;;;;;;;5.53;2.45;;;;;;;;;;4916967;29;20063;-73
2021/11/07 04:42:04;;;;;;;8.13;2.47;;;;;;;;;;4920383;29;20036;-74
2021/11/07 04:44:31;;;;;;;10.10;3.10;;;;;;;;;;4916346;29;20027;-73
2021/11/07 04:46:58;;;;;;;5.45;2.58;;;;;;;;;;4916560;29;20048;-73
2021/11/07 04:49:25;;;;;;;5.30;2.45;;;;;;;;;;4922569;29;20028;-73
2021/11/07 04:51:52;;;;;;;6.55;2.75;;;;;;;;;;4916172;29;20550;-74
2021/11/07 04:54:18;;;;;;;8.50;3.08;;;;;;;;;;4913832;29;20035;-74
2021/11/07 04:56:44;;;;;;;12.30;3.13;;;;;;;;;;4915551;29;20028;-74
2021/11/07 04:59:11;;;;;;;7.82;2.45;;;;;;;;;;4916234;29;20071;-74
2021/11/07 05:01:37;;;;;;;8.55;3.00;;;;;;;;;;4914683;29;20128;-73
2021/11/07 05:04:03;;;;;;;6.60;2.60;;;;;;;;;;4914406;29;20388;-73
2021/11/07 05:06:30;;;;;;;10.50;3.50;;;;;;;;;;4916708;29;20055;-74
2021/11/07 05:08:56;;;;;;;8.35;2.95;;;;;;;;;;4919004;29;20027;-73
2021/11/07 05:11:22;;;;;;;7.70;3.22;;;;;;;;;;4917532;29;20032;-74
2021/11/07 05:13:48;;;;;;;8.88;3.10;;;;;;;;;;4920553;29;20230;-74
2021/11/07 05:16:15;;;;;;;10.23;2.97;;;;;;;;;;4914905;29;20027;-74
2021/11/07 05:18:41;;;;;;;6.25;2.42;;;;;;;;;;4914407;29;20039;-74
2021/11/07 05:21:07;;;;;;;9.68;2.83;;;;;;;;;;4918565;29;20038;-74
2021/11/07 05:23:33;;;;;;;10.75;3.28;;;;;;;;;;4917610;29;20028;-73
2021/11/07 05:26:00;;;;;;;12.07;2.92;;;;;;;;;;4914907;29;20048;-73
2021/11/07 05:28:26;;;;;;;7.35;2.80;;;;;;;;;;4918311;29;20035;-73
2021/11/07 05:30:52;;;;;;;8.85;2.50;;;;;;;;;;4914646;29;20127;-73
2021/11/07 05:33:19;;;;;;;10.10;3.00;;;;;;;;;;4915894;29;20020;-73
2021/11/07 05:35:45;;;;;;;6.47;2.65;;;;;;;;;;4912764;29;20024;-74
2021/11/07 05:38:11;;;;;;;12.02;3.40;;;;;;;;;;4917419;29;20059;-74
2021/11/07 05:40:38;;;;;;;11.27;3.42;;;;;;;;;;4914954;29;20451;-74
2021/11/07 05:43:04;;;;;;;7.75;3.15;;;;;;;;;;4915075;29;20419;-74
2021/11/07 05:45:30;;;;;;;9.75;3.00;;;;;;;;;;4917042;29;20051;-73
2021/11/07 05:47:56;;;;;;;10.10;3.30;;;;;;;;;;4914333;29;20036;-73
2021/11/07 05:50:24;;;;;;;5.30;2.70;;;;;;;;;;4919356;29;20110;-73
2021/11/07 05:52:51;;;;;;;7.38;2.60;;;;;;;;;;4914997;29;20028;-73
2021/11/07 05:55:18;;;;;;;8.00;3.00;;;;;;;;;;4915484;29;20642;-73
2021/11/07 05:57:45;;;;;;;9.25;2.90;;;;;;;;;;4917509;29;20086;-73
2021/11/07 06:00:13;;;;;;;11.90;3.03;;;;;;;;;;4916095;29;20047;-74
2021/11/07 06:02:39;;;;;;;5.35;2.60;;;;;;;;;;4912467;29;20043;-74
2021/11/07 06:05:06;;;;;;;8.02;3.47;;;;;;;;;;4912630;29;20142;-74
2021/11/07 06:07:32;;;;;;;7.75;2.80;;;;;;;;;;4911671;29;20040;-74
2021/11/07 06:09:59;;;;;;;10.32;2.88;;;;;;;;;;4916861;29;20063;-74
2021/11/07 06:12:25;;;;;;;7.85;2.75;;;;;;;;;;4910855;29;20031;-74
2021/11/07 06:14:51;;;;;;;9.32;2.58;;;;;;;;;;4913628;29;20030;-74
2021/11/07 06:17:18;;;;;;;7.68;3.00;;;;;;;;;;4913066;29;20031;-75
2021/11/07 06:19:45;;;;;;;10.27;3.20;;;;;;;;;;4914884;29;20094;-74
2021/11/07 06:22:11;;;;;;;7.40;2.90;;;;;;;;;;4921410;29;20721;-74
2021/11/07 06:24:37;;;;;;;5.65;2.95;;;;;;;;;;4910823;29;20119;-74
2021/11/07 06:27:04;;;;;;;13.70;3.60;;;;;;;;;;4913943;29;20039;-74
2021/11/07 06:29:31;;;;;;;10.05;3.75;;;;;;;;;;4915637;29;20051;-75
2021/11/07 06:31:57;;;;;;;7.28;2.92;;;;;;;;;;4913943;29;20527;-74
2021/11/07 06:34:24;;;;;;;7.72;2.60;;;;;;;;;;4914696;29;20429;-74
2021/11/07 06:36:51;;;;;;;11.48;3.75;;;;;;;;;;4916297;29;20060;-74
2021/11/07 06:39:18;;;;;;;8.88;3.00;;;;;;;;;;4919103;29;20078;-74
2021/11/07 06:41:44;;;;;;;11.60;3.58;;;;;;;;;;4917748;29;20121;-74
2021/11/07 06:44:12;;;;;;;7.35;3.33;;;;;;;;;;4917437;29;20044;-74
2021/11/07 06:46:38;;;;;;;10.70;3.13;;;;;;;;;;4917147;29;20992;-74
2021/11/07 06:49:05;;;;;;;6.00;3.00;;;;;;;;;;4918903;29;20027;-74
2021/11/07 06:51:32;;;;;;;11.70;3.17;;;;;;;;;;4918609;29;20035;-74
2021/11/07 06:53:58;;;;;;;15.32;3.85;;;;;;;;;;4916343;29;20051;-74
2021/11/07 06:56:24;;;;;;;7.38;2.90;;;;;;;;;;4917586;29;20027;-74
2021/11/07 06:58:51;;;;;;;13.20;3.25;;;;;;;;;;4914283;29;20028;-74
2021/11/07 07:01:18;;;;;;;10.82;3.03;;;;;;;;;;4916371;29;20094;-74
2021/11/07 07:03:44;;;;;;;10.23;3.03;;;;;;;;;;4920704;29;20028;-74
2021/11/07 07:06:10;;;;;;;10.45;2.70;;;;;;;;;;4913395;29;20869;-74
2021/11/07 07:08:56;;;;;;;8.57;2.75;;;;;;;;;;4920296;29;20055;-75
2021/11/07 07:11:30;;;;;;;6.05;2.40;;;;;;;;;;4918646;29;20325;-74
2021/11/07 07:14:04;;;;;;;6.10;3.13;;;;;;;;;;4918092;29;20106;-74
2021/11/07 07:35:03;;;;;;;8.52;3.40;;;;;;;;;;4913161;29;20091;-73
2021/11/07 07:37:29;;;;;;;8.40;3.30;;;;;;;;;;4917710;29;20063;-74
2021/11/07 07:39:55;;;;;;;7.88;3.35;;;;;;;;;;4916754;29;20088;-74
2021/11/07 07:42:21;;;;;;;9.50;3.33;;;;;;;;;;4916292;29;20622;-74
2021/11/07 07:44:52;;;;;;;6.28;3.08;;;;;;;;;;4915093;29;20492;-74
2021/11/07 07:47:19;;;;;;;8.27;3.22;;;;;;;;;;4920384;29;20067;-74
2021/11/07 07:49:50;;;;;;;8.18;3.28;;;;;;;;;;4922054;29;20031;-75
2021/11/07 07:52:23;;;;;;;8.52;3.40;;;;;;;;;;4919383;29;20027;-75
2021/11/07 07:54:49;;;;;;;9.70;4.18;;;;;;;;;;4922060;29;20035;-72
2021/11/07 07:57:16;;;;;;;10.38;3.88;;;;;;;;;;4920385;29;20020;-73
2021/11/07 07:59:42;;;;;;;10.65;3.70;;;;;;;;;;4920621;29;20120;-74
2021/11/07 08:02:08;;;;;;;10.48;3.58;;;;;;;;;;4919620;29;20118;-73
2021/11/07 08:04:34;;;;;;;12.65;3.65;;;;;;;;;;4922921;29;20027;-72
2021/11/07 08:07:01;;;;;;;10.82;4.00;;;;;;;;;;4922705;29;20038;-72
2021/11/07 08:09:27;;;;;;;9.88;3.65;;;;;;;;;;4922594;29;20031;-71
2021/11/07 08:11:54;;;;;;;9.55;3.35;;;;;;;;;;4924429;29;20023;-73
2021/11/07 08:14:20;;;;;;;12.13;4.05;;;;;;;;;;4922190;29;20032;-72
2021/11/07 08:16:46;;;;;;;9.45;3.53;;;;;;;;;;4921503;29;20032;-71
2021/11/07 08:19:12;;;;;;;10.85;3.80;;;;;;;;;;4924324;29;20505;-73
2021/11/07 08:21:39;;;;;;;10.68;4.10;;;;;;;;;;4924177;29;20115;-72
2021/11/07 08:24:07;;;;;;;10.60;4.20;;;;;;;;;;4923652;29;20031;-73
2021/11/07 08:26:34;;;;;;;12.57;4.55;;;;;;;;;;4922947;29;20619;-72
2021/11/07 08:29:01;;;;;;;13.93;4.40;;;;;;;;;;4920565;29;20051;-72
2021/11/07 08:31:29;;;;;;;17.15;4.10;;;;;;;;;;4920173;29;20364;-72
2021/11/07 08:33:55;;;;;;;15.90;5.15;;;;;;;;;;4919290;29;20032;-73
2021/11/07 08:36:35;;;;;;;10.57;4.20;;;;;;;;;;4915347;29;20117;-71
2021/11/07 08:39:06;;;;;;;16.17;4.72;;;;;;;;;;4912463;29;20067;-72
2021/11/07 08:41:33;;;;;;;14.20;4.07;;;;;;;;;;4910908;29;20032;-71
2021/11/07 09:00:18;;;;;;;13.13;4.20;;;;;;;;;;4921119;29;20046;-72
2021/11/07 09:05:25;;;;;;;16.17;5.57;;;;;;;;;;4920790;29;20099;-73
2021/11/07 09:10:20;;;;;;;19.70;5.05;;;;;;;;;;4915591;29;20027;-74
2021/11/07 09:12:47;;;;;;;23.10;5.97;;;;;;;;;;4921191;29;20476;-73
2021/11/07 09:15:15;;;;;;;18.13;6.03;;;;;;;;;;4919842;29;20039;-73
2021/11/07 09:17:44;;;;;;;21.95;5.55;;;;;;;;;;4918900;29;20038;-74
2021/11/07 09:20:15;;;;;;;20.58;5.90;;;;;;;;;;4918200;29;20024;-74
2021/11/07 09:22:47;;;;;;;21.67;6.00;;;;;;;;;;4917249;29;20026;-73
2021/11/07 09:25:29;;;;;;;;;;;;;;;;;;4918091;29;20079;-75
2021/11/07 09:28:06;;;;;;;18.48;5.65;;;;;;;;;;4918402;29;19993;-74
2021/11/07 09:33:31;;;;;;;26.02;6.22;;;;;;;;;;4911664;29;20044;-75
2021/11/07 09:38:30;;;;;;;28.45;7.00;;;;;;;;;;4921610;29;20431;-72
2021/11/07 09:41:09;;;;;;;25.25;6.18;;;;;;;;;;4919136;29;20500;-74
2021/11/07 09:44:12;;;;;;;30.95;7.30;;;;;;;;;;4930630;29;20032;-71
2021/11/07 09:46:34;;;;;;;26.52;7.10;;;;;;;;;;4907351;29;20043;-72
2021/11/07 09:49:13;;;;;;;27.17;7.45;;;;;;;;;;4902794;29;20585;-71
2021/11/07 09:51:40;;;;;;;23.60;7.18;;;;;;;;;;4907810;29;20036;-75
2021/11/07 09:54:07;;;;;;;33.33;7.15;;;;;;;;;;4905617;29;20587;-74
2021/11/07 09:56:34;;;;;;;25.35;7.57;;;;;;;;;;4908438;29;20520;-71
2021/11/07 09:59:01;;;;;;;29.58;7.82;;;;;;;;;;4900188;29;21952;-73
2021/11/07 10:01:31;;;;;;;22.48;6.80;;;;;;;;;;4909816;29;20102;-71
2021/11/07 10:03:59;;;;;;;25.98;7.63;;;;;;;;;;4911466;29;20039;-75
2021/11/07 10:06:32;;;;;;;21.33;7.47;;;;;;;;;;4914836;29;20047;-74
2021/11/07 10:08:59;;;;;;;21.88;7.18;;;;;;;;;;4912397;29;20035;-72
2021/11/07 10:11:59;;;;;;;22.27;7.22;;;;;;;;;;4913586;29;20030;-72
2021/11/07 10:14:19;;;;;;;33.45;11.52;;;;;;;;;;4908740;29;20118;-72
2021/11/07 10:16:50;;;;;;;31.10;10.00;;;;;;;;;;4911328;29;20047;-72
2021/11/07 10:19:35;;;;;;;22.98;12.15;;;;;;;;;;4915384;29;20028;-72
2021/11/07 10:22:02;;;;;;;32.13;13.73;;;;;;;;;;4909231;29;20032;-75
2021/11/07 10:24:30;;;;;;;34.40;17.35;;;;;;;;;;4915309;29;20036;-75
2021/11/07 10:27:01;;;;;;;34.33;22.10;;;;;;;;;;4912613;29;20067;-75
2021/11/07 10:29:38;;;;;;;30.88;17.48;;;;;;;;;;4917173;29;20563;-75
2021/11/07 10:32:15;;;;;;;20.40;9.13;;;;;;;;;;4904792;29;20047;-75
2021/11/07 10:42:49;;;;;;;59.08;38.03;;;;;;;;;;4904529;29;20045;-72
2021/11/07 10:45:24;;;;;;;42.20;24.00;;;;;;;;;;4908033;29;20028;-73
2021/11/07 10:53:51;;;;;;;32.53;15.88;;;;;;;;;;4905707;29;20039;-72
2021/11/07 10:56:18;;;;;;;32.88;10.32;;;;;;;;;;4905387;29;20087;-75
2021/11/07 10:58:48;;;;;;;31.35;15.10;;;;;;;;;;4905413;29;20096;-75
2021/11/07 11:01:19;;;;;;;35.08;14.55;;;;;;;;;;4909281;29;20032;-75
2021/11/07 11:03:48;;;;;;;36.95;20.42;;;;;;;;;;4906309;29;20024;-75
2021/11/07 11:06:16;;;;;;;26.02;12.00;;;;;;;;;;4902829;29;20550;-75
2021/11/07 11:08:54;;;;;;;19.27;8.65;;;;;;;;;;4907504;29;20082;-75
2021/11/07 11:11:42;;;;;;;25.83;8.18;;;;;;;;;;4906405;29;20024;-72
2021/11/07 11:16:56;;;;;;;26.27;12.27;;;;;;;;;;4905452;29;20107;-75
2021/11/07 11:19:48;;;;;;;20.27;10.05;;;;;;;;;;4912508;29;20120;-74
2021/11/07 11:40:29;;;;;;;27.40;11.05;;;;;;;;;;4916360;29;20031;-75
2021/11/07 11:43:02;;;;;;;29.92;10.30;;;;;;;;;;4914646;29;20083;-75
2021/11/07 11:45:33;;;;;;;21.33;11.15;;;;;;;;;;4914526;29;20040;-72
2021/11/07 11:48:08;;;;;;;26.55;11.70;;;;;;;;;;4915339;29;20028;-75
2021/11/07 11:56:06;;;;;;;25.98;10.02;;;;;;;;;;4914738;29;20155;-75
2021/11/07 11:58:40;;;;;;;17.25;8.75;;;;;;;;;;4913360;29;20521;-75
2021/11/07 12:01:14;;;;;;;21.00;9.65;;;;;;;;;;4918061;29;20036;-74
2021/11/07 12:06:21;;;;;;;28.45;10.55;;;;;;;;;;4905070;29;20477;-75
2021/11/07 12:08:59;;;;;;;17.55;9.23;;;;;;;;;;4917108;29;20043;-74
2021/11/07 12:11:51;;;;;;;17.58;8.65;;;;;;;;;;4918065;29;20036;-73
2021/11/07 12:14:39;;;;;;;31.05;11.77;;;;;;;;;;4913981;29;20070;-75
2021/11/07 12:17:05;;;;;;;28.85;10.18;;;;;;;;;;4908379;29;20048;-76
2021/11/07 12:19:41;;;;;;;21.00;10.65;;;;;;;;;;4921687;29;20119;-75
2021/11/07 12:22:09;;;;;;;28.48;10.40;;;;;;;;;;4921649;29;20570;-75
2021/11/07 12:24:39;;;;;;;30.45;12.98;;;;;;;;;;4920576;29;20032;-75
2021/11/07 12:27:17;;;;;;;27.75;10.35;;;;;;;;;;4923953;29;20447;-75
2021/11/07 12:29:45;;;;;;;23.00;11.02;;;;;;;;;;4920062;29;20487;-76
2021/11/07 12:32:12;;;;;;;25.02;10.30;;;;;;;;;;4917118;29;20026;-76
2021/11/07 12:40:41;;;;;;;19.17;8.95;;;;;;;;;;4918475;29;20062;-76
2021/11/07 12:43:07;;;;;;;20.30;9.07;;;;;;;;;;4912864;29;20094;-76
2021/11/07 12:45:39;;;;;;;20.38;8.32;;;;;;;;;;4915523;29;20032;-76
2021/11/07 12:48:07;;;;;;;24.77;9.73;;;;;;;;;;4917165;29;20042;-76
2021/11/07 12:50:55;;;;;;;26.42;9.88;;;;;;;;;;4916182;29;20341;-76
2021/11/07 12:53:22;;;;;;;20.65;8.30;;;;;;;;;;4914523;29;20028;-75
2021/11/07 12:55:49;;;;;;;23.10;9.02;;;;;;;;;;4917349;29;20024;-76
2021/11/07 12:58:16;;;;;;;31.23;11.30;;;;;;;;;;4915344;29;20118;-76
2021/11/07 13:00:43;;;;;;;28.00;11.13;;;;;;;;;;4915390;29;20027;-76
2021/11/07 13:03:10;;;;;;;22.38;10.55;;;;;;;;;;4914265;29;20074;-75
2021/11/07 13:05:38;;;;;;;26.27;9.73;;;;;;;;;;4918830;29;20059;-75
2021/11/07 13:08:19;;;;;;;20.60;9.40;;;;;;;;;;4911235;29;20034;-76
2021/11/07 13:11:07;;;;;;;20.45;9.45;;;;;;;;;;4913682;29;20396;-75
2021/11/07 13:14:00;;;;;;;21.85;8.32;;;;;;;;;;4915705;29;20039;-76
2021/11/07 13:24:42;;;;;;;23.33;8.45;;;;;;;;;;4912294;29;20047;-73
2021/11/07 13:27:13;;;;;;;22.13;9.07;;;;;;;;;;4914047;29;20039;-73
2021/11/07 13:30:05;;;;;;;22.90;9.63;;;;;;;;;;4911115;29;20075;-73
2021/11/07 13:32:32;;;;;;;18.50;8.40;;;;;;;;;;4910670;29;20566;-70
2021/11/07 13:35:04;;;;;;;30.88;10.75;;;;;;;;;;4909494;29;20032;-73
2021/11/07 13:37:41;;;;;;;21.98;9.93;;;;;;;;;;4917129;29;20484;-75
2021/11/07 13:40:19;;;;;;;24.77;10.00;;;;;;;;;;4914285;29;20057;-75
2021/11/07 13:42:46;;;;;;;31.42;10.70;;;;;;;;;;4920391;29;20024;-76
2021/11/07 13:45:21;;;;;;;21.23;8.90;;;;;;;;;;4904070;29;20039;-75
2021/11/07 13:47:49;;;;;;;20.90;8.40;;;;;;;;;;4912814;29;20036;-74
2021/11/07 13:50:18;;;;;;;25.85;8.32;;;;;;;;;;4915897;29;20488;-74
2021/11/07 13:52:44;;;;;;;20.73;9.32;;;;;;;;;;4919623;29;20040;-76
2021/11/07 13:55:14;;;;;;;23.88;8.90;;;;;;;;;;4912874;29;20032;-75
2021/11/07 13:57:41;;;;;;;22.58;8.45;;;;;;;;;;4913909;29;20066;-75
2021/11/07 14:00:09;;;;;;;27.45;9.52;;;;;;;;;;4909720;29;20032;-74
2021/11/07 14:02:35;;;;;;;29.25;8.75;;;;;;;;;;4915403;29;20034;-76
2021/11/07 14:05:01;;;;;;;28.33;9.02;;;;;;;;;;4916583;29;20038;-73
2021/11/07 14:07:29;;;;;;;28.75;9.40;;;;;;;;;;4934899;29;21569;-72
2021/11/07 14:10:01;;;;;;;30.98;10.15;;;;;;;;;;4912517;29;20038;-72
2021/11/07 14:12:29;;;;;;;23.80;8.35;;;;;;;;;;4917048;29;20049;-74
2021/11/07 14:15:05;;;;;;;20.85;8.52;;;;;;;;;;4911362;29;20032;-75
2021/11/07 14:17:32;;;;;;;20.88;8.30;;;;;;;;;;4911656;29;20036;-75
2021/11/07 14:19:58;;;;;;;22.42;8.90;;;;;;;;;;4915797;29;20023;-75
2021/11/07 14:22:25;;;;;;;25.00;8.55;;;;;;;;;;4914794;29;20419;-75
2021/11/07 14:24:52;;;;;;;25.13;8.40;;;;;;;;;;4911580;29;20035;-75
2021/11/07 14:27:33;;;;;;;29.30;9.10;;;;;;;;;;4911950;29;20036;-74
2021/11/07 14:30:04;;;;;;;25.58;9.15;;;;;;;;;;4911971;29;20083;-76
2021/11/07 14:32:34;;;;;;;23.70;9.27;;;;;;;;;;4914845;29;20032;-75
2021/11/07 14:35:15;;;;;;;20.98;8.20;;;;;;;;;;4916513;29;20335;-74
2021/11/07 14:40:54;;;;;;;24.63;8.25;;;;;;;;;;4896057;29;20032;-76
2021/11/07 14:43:34;;;;;;;22.15;8.90;;;;;;;;;;4913947;29;20028;-74
2021/11/07 14:56:45;;;;;;;21.67;7.88;;;;;;;;;;4911011;29;20115;-73
2021/11/07 14:59:35;;;;;;;26.02;8.75;;;;;;;;;;4919889;29;20488;-74
2021/11/07 15:02:32;;;;;;;18.27;7.60;;;;;;;;;;4914509;29;20043;-73
2021/11/07 15:05:06;;;;;;;30.20;9.27;;;;;;;;;;4909511;29;20475;-72
2021/11/07 15:07:42;;;;;;;28.98;9.32;;;;;;;;;;4911107;29;20150;-76
2021/11/07 15:13:09;;;;;;;29.83;10.95;;;;;;;;;;4920062;29;20698;-76
2021/11/07 15:21:17;;;;;;;26.83;9.75;;;;;;;;;;4918780;29;20044;-76
2021/11/07 15:23:42;;;;;;;26.90;10.05;;;;;;;;;;4916503;29;20036;-75
2021/11/07 15:26:38;;;;;;;28.70;10.00;;;;;;;;;;4917680;29;20032;-75
2021/11/07 15:29:09;;;;;;;26.15;10.77;;;;;;;;;;4917191;29;20123;-76
2021/11/07 15:31:36;;;;;;;28.17;11.05;;;;;;;;;;4920816;29;20516;-75
2021/11/07 15:34:04;;;;;;;30.00;9.55;;;;;;;;;;4920781;29;20030;-76
2021/11/07 15:36:36;;;;;;;34.33;9.65;;;;;;;;;;4913722;29;20028;-74
2021/11/07 15:39:02;;;;;;;;;;;;;;;;;;4919289;29;20034;-73
2021/11/07 15:41:28;;;;;;;31.85;10.48;;;;;;;;;;4918381;29;19915;-75
2021/11/07 15:43:55;;;;;;;26.20;9.25;;;;;;;;;;4910270;29;20127;-74
2021/11/07 15:46:21;;;;;;;28.10;9.68;;;;;;;;;;4916525;29;20035;-75
2021/11/07 15:48:50;;;;;;;24.08;9.30;;;;;;;;;;4915314;29;20040;-75
2021/11/07 16:01:52;;;;;;;29.27;10.07;;;;;;;;;;4917883;29;20639;-74
2021/11/07 16:16:53;;;;;;;29.73;10.13;;;;;;;;;;4922361;29;20196;-75
2021/11/07 16:19:25;;;;;;;28.08;9.93;;;;;;;;;;4922352;29;20103;-75
2021/11/07 16:21:52;;;;;;;34.85;11.82;;;;;;;;;;4921845;29;20032;-73
2021/11/07 16:24:20;;;;;;;26.30;10.82;;;;;;;;;;4920966;29;20084;-75
2021/11/07 16:26:49;;;;;;;31.08;10.93;;;;;;;;;;4920635;29;20032;-75
2021/11/07 16:29:22;;;;;;;22.58;10.02;;;;;;;;;;4920608;29;20095;-74
2021/11/07 16:31:57;;;;;;;28.73;11.00;;;;;;;;;;4920788;29;20046;-76
2021/11/07 16:34:24;;;;;;;35.47;11.05;;;;;;;;;;4918084;29;20047;-74
2021/11/07 16:36:51;;;;;;;29.38;11.93;;;;;;;;;;4918388;29;20051;-75
2021/11/07 16:39:28;;;;;;;26.65;10.65;;;;;;;;;;4922276;29;20075;-76
2021/11/07 16:42:00;;;;;;;27.98;10.90;;;;;;;;;;4920477;29;20058;-74
2021/11/07 16:44:33;;;;;;;25.67;11.52;;;;;;;;;;4920278;29;20540;-75
2021/11/07 16:47:02;;;;;;;24.30;12.07;;;;;;;;;;4920055;29;20039;-75
2021/11/07 16:49:32;;;;;;;24.00;11.85;;;;;;;;;;4920131;29;20023;-75
2021/11/07 16:52:16;;;;;;;27.52;11.07;;;;;;;;;;4918323;29;20123;-76
2021/11/07 16:55:09;;;;;;;28.10;11.90;;;;;;;;;;4921575;29;20030;-75
2021/11/07 16:57:32;;;;;;;26.77;11.50;;;;;;;;;;4921836;29;20099;-75
2021/11/07 17:09:58;;;;;;;28.50;12.77;;;;;;;;;;4922460;29;20047;-75
2021/11/07 17:12:27;;;;;;;31.13;10.95;;;;;;;;;;4919686;29;20737;-74
2021/11/07 17:17:41;;;;;;;38.70;14.82;;;;;;;;;;4922132;29;20036;-76
2021/11/07 17:25:16;;;;;;;32.38;13.60;;;;;;;;;;4917285;29;20038;-76
2021/11/07 17:27:47;;;;;;;33.72;15.07;;;;;;;;;;4923218;29;20540;-75
2021/11/07 17:30:18;;;;;;;25.33;13.18;;;;;;;;;;4922124;29;20039;-76
2021/11/07 17:32:59;;;;;;;32.25;14.50;;;;;;;;;;4919678;29;20050;-76
2021/11/07 17:35:34;;;;;;;31.53;13.47;;;;;;;;;;4921902;29;20333;-74
2021/11/07 17:56:58;;;;;;;29.08;14.38;;;;;;;;;;4920996;29;20036;-75
2021/11/07 17:59:25;;;;;;;31.17;13.23;;;;;;;;;;4920538;29;20123;-74
2021/11/07 18:01:53;;;;;;;31.25;14.98;;;;;;;;;;4919741;29;20742;-75
2021/11/07 18:04:19;;;;;;;28.10;13.88;;;;;;;;;;4922215;29;20171;-75
2021/11/07 18:06:49;;;;;;;31.17;14.93;;;;;;;;;;4922371;29;20055;-75
2021/11/07 18:09:24;;;;;;;32.20;12.95;;;;;;;;;;4921644;29;20019;-75
2021/11/07 18:11:52;;;;;;;32.25;13.50;;;;;;;;;;4918473;29;20047;-75
2021/11/07 18:14:18;;;;;;;29.80;13.68;;;;;;;;;;4923026;29;20097;-74
2021/11/07 18:16:44;;;;;;;29.15;13.60;;;;;;;;;;4918450;29;20038;-74
2021/11/07 18:19:10;;;;;;;26.73;13.88;;;;;;;;;;4921899;29;20110;-76
2021/11/07 18:21:49;;;;;;;37.22;13.32;;;;;;;;;;4921851;29;20032;-75
2021/11/07 18:24:23;;;;;;;31.17;12.82;;;;;;;;;;4917743;29;20024;-75
2021/11/07 18:26:50;;;;;;;20.88;11.68;;;;;;;;;;4920119;29;20051;-74
2021/11/07 18:29:17;;;;;;;23.70;12.13;;;;;;;;;;4920108;29;20023;-75